Latest Weather Observations for Point Wilson

IDV60801

Issued at 5:31 am EDT Monday 22 December 2014 (issued every 30 minutes, with the page automatically refreshed every 10 minutes)

About weather observations | Map of weather stations | Latest weather observations for VIC | Other Formats
Station Details ID: 087166 Name: POINT WILSON Lat: -38.10 Lon: 144.54 Height: 18.0 m
Data from the previous 72 hours. | See also: Recent months at Point Wilson
Date/Time
EDT
Temp
°C
App
Temp
°C
Dew
Point
Rel
Hum
%
Delta-T
°C
Wind Press
QNH
hPa
Press
MSL
hPa
Rain
since 9 am
mm
Dir
 
Spd
km/h
Gust
km/h
Spd
kts
Gust
kts
22/05:30am - - - - - S 22 28 12 15 - - -
22/05:00am - - - - - S 24 28 13 15 - - -
22/04:30am - - - - - S 24 28 13 15 - - -
22/04:00am - - - - - S 22 26 12 14 - - -
22/03:30am - - - - - S 19 22 10 12 - - -
22/03:00am - - - - - S 17 22 9 12 - - -
22/02:30am - - - - - S 19 24 10 13 - - -
22/02:00am - - - - - S 19 22 10 12 - - -
22/01:30am - - - - - S 19 24 10 13 - - -
22/01:00am - - - - - S 22 26 12 14 - - -
22/12:30am - - - - - S 20 28 11 15 - - -
22/12:00am - - - - - S 24 30 13 16 - - -
 
Date/Time
EDT
Temp
°C
App
Temp
°C
Dew
Point
Rel
Hum
%
Delta-T
°C
Wind Press
QNH
hPa
Press
MSL
hPa
Rain
since 9 am
mm
Dir
 
Spd
km/h
Gust
km/h
Spd
kts
Gust
kts
21/11:30pm - - - - - S 24 30 13 16 - - -
21/11:00pm - - - - - S 22 28 12 15 - - -
21/10:30pm - - - - - S 32 39 17 21 - - -
21/10:00pm - - - - - SSW 39 46 21 25 - - -
21/09:30pm - - - - - S 30 35 16 19 - - -
21/09:00pm - - - - - S 20 22 11 12 - - -
21/08:30pm - - - - - S 24 28 13 15 - - -
21/08:00pm - - - - - SSW 26 30 14 16 - - -
21/07:30pm - - - - - S 24 28 13 15 - - -
21/07:00pm - - - - - S 24 28 13 15 - - -
21/06:30pm - - - - - S 24 30 13 16 - - -
21/06:00pm - - - - - S 26 30 14 16 - - -
21/05:30pm - - - - - S 28 32 15 17 - - -
21/05:00pm - - - - - S 28 33 15 18 - - -
21/04:30pm - - - - - S 28 30 15 16 - - -
21/04:00pm - - - - - WSW 20 28 11 15 - - -
21/03:30pm - - - - - E 26 28 14 15 - - -
21/03:00pm - - - - - E 28 32 15 17 - - -
21/02:30pm - - - - - ENE 26 28 14 15 - - -
21/02:00pm - - - - - ENE 26 30 14 16 - - -
21/01:30pm - - - - - E 20 22 11 12 - - -
21/01:00pm - - - - - E 19 20 10 11 - - -
21/12:30pm - - - - - ENE 19 20 10 11 - - -
21/12:00pm - - - - - ENE 19 20 10 11 - - -
21/11:30am - - - - - ENE 17 20 9 11 - - -
21/11:00am - - - - - E 15 17 8 9 - - -
21/10:30am - - - - - E 17 19 9 10 - - -
21/10:00am - - - - - ENE 15 17 8 9 - - -
21/09:30am - - - - - ENE 15 19 8 10 - - -
21/09:00am - - - - - ENE 13 17 7 9 - - -
21/08:30am - - - - - ENE 17 20 9 11 - - -
21/08:00am - - - - - ENE 15 19 8 10 - - -
21/07:30am - - - - - ENE 17 20 9 11 - - -
21/07:00am - - - - - ENE 11 15 6 8 - - -
21/06:30am - - - - - ENE 6 11 3 6 - - -
21/06:00am - - - - - NE 7 11 4 6 - - -
21/05:30am - - - - - NNE 15 19 8 10 - - -
21/05:00am - - - - - N 17 20 9 11 - - -
21/04:30am - - - - - N 19 20 10 11 - - -
21/04:00am - - - - - N 13 17 7 9 - - -
21/03:30am - - - - - N 15 20 8 11 - - -
21/03:00am - - - - - E 13 17 7 9 - - -
21/02:30am - - - - - E 11 13 6 7 - - -
21/02:00am - - - - - ESE 13 15 7 8 - - -
21/01:30am - - - - - ESE 11 15 6 8 - - -
21/01:00am - - - - - ESE 9 13 5 7 - - -
21/12:30am - - - - - ESE 9 11 5 6 - - -
21/12:00am - - - - - SE 7 11 4 6 - - -
 
Date/Time
EDT
Temp
°C
App
Temp
°C
Dew
Point
Rel
Hum
%
Delta-T
°C
Wind Press
QNH
hPa
Press
MSL
hPa
Rain
since 9 am
mm
Dir
 
Spd
km/h
Gust
km/h
Spd
kts
Gust
kts
20/11:30pm - - - - - SE 9 13 5 7 - - -
20/11:00pm - - - - - SSE 11 15 6 8 - - -
20/10:30pm - - - - - S 13 15 7 8 - - -
20/10:00pm - - - - - S 17 20 9 11 - - -
20/09:30pm - - - - - S 19 22 10 12 - - -
20/09:00pm - - - - - S 22 28 12 15 - - -
20/08:30pm - - - - - S 20 24 11 13 - - -
20/08:00pm - - - - - S 20 26 11 14 - - -
20/07:30pm - - - - - S 22 26 12 14 - - -
20/07:00pm - - - - - S 24 28 13 15 - - -
20/06:30pm - - - - - S 24 28 13 15 - - -
20/06:00pm - - - - - S 26 32 14 17 - - -
20/05:30pm - - - - - S 26 30 14 16 - - -
20/05:00pm - - - - - S 26 30 14 16 - - -
20/04:30pm - - - - - S 24 28 13 15 - - -
20/04:00pm - - - - - S 24 30 13 16 - - -
20/03:30pm - - - - - S 22 24 12 13 - - -
20/03:00pm - - - - - S 24 30 13 16 - - -
20/02:30pm - - - - - ESE 20 24 11 13 - - -
20/02:00pm - - - - - ESE 17 22 9 12 - - -
20/01:30pm - - - - - ESE 13 17 7 9 - - -
20/01:00pm - - - - - SE 9 13 5 7 - - -
20/12:30pm - - - - - CALM 0 0 0 0 - - -
20/12:00pm - - - - - W 7 11 4 6 - - -
20/11:30am - - - - - W 11 17 6 9 - - -
20/11:00am - - - - - W 17 22 9 12 - - -
20/10:30am - - - - - WSW 17 24 9 13 - - -
20/10:00am - - - - - WSW 19 24 10 13 - - -
20/09:30am - - - - - WSW 17 24 9 13 - - -
20/09:00am - - - - - WSW 17 20 9 11 - - -
20/08:30am - - - - - WSW 22 24 12 13 - - -
20/08:00am - - - - - W 19 22 10 12 - - -
20/07:30am - - - - - W 17 20 9 11 - - -
20/07:00am - - - - - W 17 20 9 11 - - -
20/06:30am - - - - - W 17 20 9 11 - - -
20/06:00am - - - - - W 15 19 8 10 - - -
20/05:30am - - - - - WNW 15 19 8 10 - - -
20/05:00am - - - - - WNW 15 17 8 9 - - -
20/04:30am - - - - - WNW 19 20 10 11 - - -
20/04:00am - - - - - W 15 17 8 9 - - -
20/03:30am - - - - - WNW 17 20 9 11 - - -
20/03:00am - - - - - WNW 15 19 8 10 - - -
20/02:30am - - - - - WNW 19 20 10 11 - - -
20/02:00am - - - - - WNW 17 22 9 12 - - -
20/01:30am - - - - - WSW 22 28 12 15 - - -
20/01:00am - - - - - WSW 22 28 12 15 - - -
20/12:30am - - - - - WSW 19 24 10 13 - - -
20/12:00am - - - - - WSW 19 26 10 14 - - -
 
Date/Time
EDT
Temp
°C
App
Temp
°C
Dew
Point
Rel
Hum
%
Delta-T
°C
Wind Press
QNH
hPa
Press
MSL
hPa
Rain
since 9 am
mm
Dir
 
Spd
km/h
Gust
km/h
Spd
kts
Gust
kts
19/11:30pm - - - - - WSW 19 26 10 14 - - -
19/11:00pm - - - - - SW 17 22 9 12 - - -
19/10:30pm - - - - - SW 15 20 8 11 - - -
19/10:00pm - - - - - SSW 20 24 11 13 - - -
19/09:30pm - - - - - S 20 26 11 14 - - -
19/09:00pm - - - - - S 28 33 15 18 - - -
19/08:30pm - - - - - SSW 26 32 14 17 - - -
19/08:00pm - - - - - S 26 30 14 16 - - -
19/07:30pm - - - - - S 30 35 16 19 - - -
19/07:00pm - - - - - S 28 32 15 17 - - -
19/06:30pm - - - - - S 26 32 14 17 - - -
19/06:00pm - - - - - S 26 30 14 16 - - -
19/05:30pm - - - - - S 26 37 14 20 - - -
19/05:00pm - - - - - S 26 32 14 17 - - -
19/04:30pm - - - - - S 24 32 13 17 - - -
19/04:00pm - - - - - S 28 32 15 17 - - -
19/03:30pm - - - - - S 20 28 11 15 - - -
19/03:00pm - - - - - S 22 24 12 13 - - -
19/02:30pm - - - - - S 19 26 10 14 - - -
19/02:00pm - - - - - SSW 19 24 10 13 - - -
19/01:30pm - - - - - S 15 26 8 14 - - -
19/01:00pm - - - - - S 17 22 9 12 - - -
19/12:30pm - - - - - SSW 26 32 14 17 - - -
19/12:00pm - - - - - SW 22 30 12 16 - - -
19/11:30am - - - - - SW 19 24 10 13 - - -
19/11:00am - - - - - SW 20 26 11 14 - - -
19/10:30am - - - - - SW 24 30 13 16 - - -
19/10:00am - - - - - WSW 26 32 14 17 - - -
19/09:30am - - - - - WSW 26 35 14 19 - - -
19/09:00am - - - - - WSW 22 28 12 15 - - -
19/08:30am - - - - - W 22 28 12 15 - - -
19/08:00am - - - - - W 24 32 13 17 - - -
19/07:30am - - - - - W 28 33 15 18 - - -
19/07:00am - - - - - W 30 35 16 19 - - -
19/06:30am - - - - - W 32 39 17 21 - - -
19/06:00am - - - - - W 28 33 15 18 - - -

Other Formats:

Comma delimited format used in spreadsheet applications
http://www.bom.gov.au/fwo/IDV60801/IDV60801.94847.axf

JavaScript Object Notation format (JSON) in row-major order
http://www.bom.gov.au/fwo/IDV60801/IDV60801.94847.json